KUKT/UKT METAR and TAF weather

Enter ICAO airport designator
Station Type Date Time Source
KUKT METAR 2020/07/15 00:55 UTC NOAA

KUKT 150055Z AUTO 00000KT 10SM CLR 24/19 A3006 RMK A01


Station Type Date Time Source
KUKT Decoded METAR 2020/07/15 00:55 UTC NOAA

Quakertown, Quakertown Airport, PA, United States (KUKT) 40-26-06N 075-22-54W
Jul 14, 2020 - 08:55 PM EDT / 2020.07.15 0055 UTC
Wind: Calm:0
Visibility: 10 mile(s):0
Sky conditions: clear
Temperature: 75 F (24 C)
Dew Point: 66 F (19 C)
Relative Humidity: 73%
Pressure (altimeter): 30.06 in. Hg (1017 hPa)
ob: KUKT 150055Z AUTO 00000KT 10SM CLR 24/19 A3006 RMK A01
cycle: 1

Station Type Date Time Source
KUKT TAF UTC NOAA

Error!

Example: see airport list